createdAt,value
2023-11-24T00:00:44.844Z,100677.41
2023-11-24T00:03:13.147Z,100666.53
2023-11-24T00:05:41.405Z,100655.09
2023-11-24T00:08:09.590Z,100660.53
2023-11-24T00:10:38.439Z,100650.47
2023-11-24T00:13:07.705Z,100639.81
2023-11-24T00:15:38.405Z,100626.50
2023-11-24T00:18:06.675Z,100625.13
2023-11-24T00:20:35.332Z,100624.63
2023-11-24T00:23:03.737Z,100623.53
2023-11-24T00:25:34.033Z,100629.25
2023-11-24T00:28:02.966Z,100611.59
2023-11-24T00:30:31.027Z,100607.25
2023-11-24T00:32:59.151Z,100602.38
2023-11-24T00:35:27.373Z,100590.50
2023-11-24T00:37:55.381Z,100600.03
2023-11-24T00:40:23.303Z,100605.00
2023-11-24T00:42:51.685Z,100586.22
2023-11-24T00:45:19.858Z,100596.53
2023-11-24T00:47:48.274Z,100594.91
2023-11-24T00:50:16.559Z,100591.38
2023-11-24T00:52:44.776Z,100597.09
2023-11-24T00:55:13.194Z,100606.34
2023-11-24T00:57:42.091Z,100576.25
2023-11-24T01:00:11.832Z,100554.91
2023-11-24T01:02:40.319Z,100575.44
2023-11-24T01:05:10.744Z,100576.25
2023-11-24T01:07:38.783Z,100570.59
2023-11-24T01:10:09.156Z,100580.06
2023-11-24T01:12:37.602Z,100563.06
2023-11-24T01:15:07.552Z,100585.28
2023-11-24T01:17:36.900Z,100571.94
2023-11-24T01:20:05.343Z,100582.31
2023-11-24T01:22:33.410Z,100590.19
2023-11-24T01:25:01.521Z,100592.91
2023-11-24T01:27:29.644Z,100591.53
2023-11-24T01:29:57.841Z,100608.97
2023-11-24T01:32:25.765Z,100593.50
2023-11-24T01:34:54.381Z,100584.81
2023-11-24T01:37:23.634Z,100567.78
2023-11-24T01:39:51.966Z,100582.91
2023-11-24T01:42:20.596Z,100589.16
2023-11-24T01:44:49.174Z,100582.63
2023-11-24T01:47:17.850Z,100569.59
2023-11-24T01:49:47.320Z,100567.91
2023-11-24T01:52:16.157Z,100560.34
2023-11-24T01:54:44.209Z,100554.38
2023-11-24T01:57:13.383Z,100551.16
2023-11-24T01:59:42.521Z,100550.03
2023-11-24T02:02:11.221Z,100499.56
2023-11-24T02:04:39.497Z,100542.41
2023-11-24T02:07:09.203Z,100533.44
2023-11-24T02:09:37.385Z,100540.47
2023-11-24T02:12:05.583Z,100527.41
2023-11-24T02:14:34.257Z,100534.50
2023-11-24T02:17:02.430Z,100532.03
2023-11-24T02:19:30.720Z,100519.53
2023-11-24T02:21:58.967Z,100511.16
2023-11-24T02:24:26.856Z,100502.19
2023-11-24T02:26:55.159Z,100482.63
2023-11-24T02:29:23.033Z,100484.00
2023-11-24T02:31:50.935Z,100484.59
2023-11-24T02:34:19.904Z,100484.31
2023-11-24T02:36:48.316Z,100497.09
2023-11-24T02:39:16.381Z,100492.75
2023-11-24T02:41:44.321Z,100474.06
2023-11-24T02:44:12.451Z,100481.41
2023-11-24T02:46:42.237Z,100462.06
2023-11-24T02:49:10.471Z,100482.22
2023-11-24T02:51:39.304Z,100462.38
2023-11-24T02:54:08.140Z,100445.75
2023-11-24T02:56:36.750Z,100457.75
2023-11-24T02:59:04.585Z,100453.06
2023-11-24T03:01:33.135Z,100436.16
2023-11-24T03:04:01.347Z,100426.13
2023-11-24T03:06:29.595Z,100439.19
2023-11-24T03:08:58.963Z,100419.59
2023-11-24T03:11:26.806Z,100425.88
2023-11-24T03:13:55.196Z,100425.34
2023-11-24T03:16:23.430Z,100444.06
2023-11-24T03:18:51.486Z,100414.75
2023-11-24T03:21:19.440Z,100401.50
2023-11-24T03:23:47.853Z,100404.75
2023-11-24T03:26:16.022Z,100418.63
2023-11-24T03:28:44.164Z,100342.09
2023-11-24T03:31:12.642Z,100400.19
2023-11-24T03:33:40.694Z,100400.69
2023-11-24T03:36:08.983Z,100403.41
2023-11-24T03:38:37.128Z,100390.09
2023-11-24T03:41:05.104Z,100398.78
2023-11-24T03:43:33.466Z,100392.03
2023-11-24T03:46:01.878Z,100380.63
2023-11-24T03:48:31.612Z,100401.28
2023-11-24T03:51:00.238Z,100405.63
2023-11-24T03:53:28.319Z,100386.28
2023-11-24T03:55:56.236Z,100402.31
2023-11-24T03:58:24.359Z,100397.97
2023-11-24T04:00:52.221Z,100399.38
2023-11-24T04:03:20.513Z,100396.34
2023-11-24T04:05:48.452Z,100408.84
2023-11-24T04:08:16.505Z,100406.41
2023-11-24T04:10:44.814Z,100405.84
2023-11-24T04:13:13.323Z,100347.28
2023-11-24T04:15:41.219Z,100404.00
2023-11-24T04:18:09.265Z,100396.94
2023-11-24T04:20:37.454Z,100397.56
2023-11-24T04:23:08.371Z,100397.28
2023-11-24T04:25:37.003Z,100393.25
2023-11-24T04:28:05.934Z,100389.16
2023-11-24T04:30:34.492Z,100382.94
2023-11-24T04:35:31.918Z,100382.94
2023-11-24T04:38:00.089Z,100375.06
2023-11-24T04:40:28.032Z,100382.94
2023-11-24T04:42:56.438Z,100370.94
2023-11-24T04:45:24.493Z,100359.56
2023-11-24T04:47:52.908Z,100365.81
2023-11-24T04:50:21.139Z,100345.69
2023-11-24T04:52:49.266Z,100353.53
2023-11-24T04:55:17.294Z,100347.03
2023-11-24T04:57:51.706Z,100323.47
2023-11-24T05:00:20.257Z,100349.16
2023-11-24T05:02:48.328Z,100341.53
2023-11-24T05:05:18.731Z,100348.00
2023-11-24T05:07:47.102Z,100342.28
2023-11-24T05:10:15.033Z,100346.31
2023-11-24T05:12:43.056Z,100323.59
2023-11-24T05:15:11.734Z,100337.34
2023-11-24T05:17:40.532Z,100322.75
2023-11-24T05:20:09.797Z,100319.47
2023-11-24T05:22:37.987Z,100312.72
2023-11-24T05:25:07.171Z,100317.94
2023-11-24T05:27:35.520Z,100312.22
2023-11-24T05:30:08.800Z,100314.69
2023-11-24T05:32:37.339Z,100297.56
2023-11-24T05:35:05.824Z,100301.91
2023-11-24T05:37:34.326Z,100301.69
2023-11-24T05:40:06.062Z,100300.63
2023-11-24T05:42:34.145Z,100305.81
2023-11-24T05:45:03.546Z,100312.84
2023-11-24T05:47:31.861Z,100293.88
2023-11-24T05:50:00.000Z,100300.59
2023-11-24T05:52:28.633Z,100303.31
2023-11-24T05:54:59.616Z,100301.63
2023-11-24T05:57:28.467Z,100309.50
2023-11-24T05:59:57.387Z,100297.81
2023-11-24T06:02:26.221Z,100313.31
2023-11-24T06:04:54.503Z,100287.50
2023-11-24T06:07:24.270Z,100292.13
2023-11-24T06:09:52.324Z,100296.53
2023-11-24T06:12:20.834Z,100312.50
2023-11-24T06:14:49.841Z,100299.19
2023-11-24T06:17:17.817Z,100296.41
2023-11-24T06:19:45.845Z,100302.09
2023-11-24T06:22:13.888Z,100303.47
2023-11-24T06:24:43.343Z,100289.56
2023-11-24T06:27:11.717Z,100285.47
2023-11-24T06:29:39.799Z,100296.88
2023-11-24T06:32:09.030Z,100293.56
2023-11-24T06:34:36.911Z,100288.66
2023-11-24T06:37:05.148Z,100289.97
2023-11-24T06:39:33.152Z,100288.28
2023-11-24T06:42:02.013Z,100288.97
2023-11-24T06:44:30.044Z,100290.06
2023-11-24T06:46:59.048Z,100296.00
2023-11-24T06:49:30.952Z,100294.88
2023-11-24T06:52:00.101Z,100300.53
2023-11-24T06:54:27.896Z,100301.84
2023-11-24T06:56:56.295Z,100304.81
2023-11-24T06:59:24.138Z,100305.53
2023-11-24T07:01:52.292Z,100306.84
2023-11-24T07:04:20.581Z,100301.94
2023-11-24T07:06:48.674Z,100304.34
2023-11-24T07:09:16.978Z,100300.81
2023-11-24T07:11:45.132Z,100303.84
2023-11-24T07:14:12.986Z,100305.44
2023-11-24T07:16:40.969Z,100321.56
2023-11-24T07:19:09.316Z,100312.81
2023-11-24T07:21:37.868Z,100305.16
2023-11-24T07:24:06.415Z,100316.28
2023-11-24T07:26:34.393Z,100305.09
2023-11-24T07:29:03.819Z,100220.03
2023-11-24T07:31:32.019Z,100303.97
2023-11-24T07:33:59.994Z,100299.34
2023-11-24T07:36:27.967Z,100317.28
2023-11-24T07:38:56.014Z,100317.59
2023-11-24T07:41:23.829Z,100310.03
2023-11-24T07:43:51.771Z,100320.31
2023-11-24T07:46:19.655Z,100303.09
2023-11-24T07:48:48.306Z,100315.00
2023-11-24T07:51:16.342Z,100325.09
2023-11-24T07:53:44.288Z,100297.56
2023-11-24T07:56:12.203Z,100300.81
2023-11-24T07:58:40.552Z,100293.66
2023-11-24T08:01:09.179Z,100296.63
2023-11-24T08:03:37.753Z,100297.94
2023-11-24T08:06:09.734Z,100247.31
2023-11-24T08:08:37.674Z,100300.03
2023-11-24T08:11:06.299Z,100312.84
2023-11-24T08:13:34.439Z,100293.78
2023-11-24T08:16:03.524Z,100310.94
2023-11-24T08:18:31.836Z,100298.13
2023-11-24T08:21:03.245Z,100292.69
2023-11-24T08:23:31.892Z,100297.13
2023-11-24T08:25:59.772Z,100292.84
2023-11-24T08:28:27.777Z,100291.84
2023-11-24T08:30:56.845Z,100288.69
2023-11-24T08:33:25.036Z,100260.91
2023-11-24T08:35:52.955Z,100308.41
2023-11-24T08:38:21.058Z,100306.25
2023-11-24T08:40:50.270Z,100280.03
2023-11-24T08:43:19.542Z,100296.19
2023-11-24T08:45:47.584Z,100291.34
2023-11-24T08:48:15.753Z,100295.16
2023-11-24T08:50:43.616Z,100292.88
2023-11-24T08:53:11.767Z,100275.47
2023-11-24T08:55:39.664Z,100294.81
2023-11-24T08:58:07.698Z,100282.56
2023-11-24T09:00:36.590Z,100296.19
2023-11-24T09:03:06.653Z,100275.03
2023-11-24T09:05:34.700Z,100264.75
2023-11-24T09:08:02.796Z,100275.53
2023-11-24T09:10:30.722Z,100261.84
2023-11-24T09:12:59.369Z,100259.13
2023-11-24T09:15:27.403Z,100274.94
2023-11-24T09:17:55.966Z,100273.84
2023-11-24T09:20:23.970Z,100260.75
2023-11-24T09:22:52.209Z,100269.41
2023-11-24T09:25:21.123Z,100267.50
2023-11-24T09:27:49.621Z,100260.13
2023-11-24T09:30:17.905Z,100259.88
2023-11-24T09:32:47.224Z,100260.69
2023-11-24T09:35:15.844Z,100259.88
2023-11-24T09:37:44.350Z,100267.19
2023-11-24T09:40:18.129Z,100255.31
2023-11-24T09:42:47.538Z,100255.00
2023-11-24T09:45:18.407Z,100247.56
2023-11-24T09:47:51.724Z,100223.75
2023-11-24T09:50:25.824Z,100232.56
2023-11-24T09:53:02.110Z,100220.88
2023-11-24T09:55:30.753Z,100214.63
2023-11-24T09:57:59.784Z,100210.47
2023-11-24T10:00:29.151Z,100209.25
2023-11-24T10:03:00.398Z,100218.63
2023-11-24T10:05:28.502Z,100208.28
2023-11-24T10:07:58.265Z,100219.19
2023-11-24T10:10:27.943Z,100215.34
2023-11-24T10:13:03.569Z,100194.34
2023-11-24T10:15:32.844Z,100193.03
2023-11-24T10:18:01.202Z,100173.69
2023-11-24T10:20:34.014Z,100201.00
2023-11-24T10:23:02.421Z,100198.47
2023-11-24T10:25:35.538Z,100183.78
2023-11-24T10:28:09.297Z,100179.34
2023-11-24T10:30:38.113Z,100171.19
2023-11-24T10:33:06.679Z,100165.44
2023-11-24T10:35:34.676Z,100169.56
2023-11-24T10:38:03.888Z,100139.59
2023-11-24T10:40:33.297Z,100151.13
2023-11-24T10:43:03.561Z,100153.25
2023-11-24T10:45:33.691Z,100142.97
2023-11-24T10:48:28.208Z,100149.72
2023-11-24T10:51:29.181Z,100140.63
2023-11-24T10:54:01.439Z,100137.41
2023-11-24T10:56:31.412Z,100136.31
2023-11-24T10:59:01.022Z,100113.53
2023-11-24T11:01:29.561Z,100125.34
2023-11-24T11:03:59.163Z,100117.66
2023-11-24T11:06:40.508Z,100115.56
2023-11-24T11:09:20.229Z,100118.16
2023-11-24T11:12:14.933Z,100113.56
2023-11-24T11:14:43.791Z,100110.00
2023-11-24T11:17:21.915Z,100112.63
2023-11-24T11:20:01.378Z,100093.69
2023-11-24T11:22:38.043Z,100101.34
2023-11-24T11:25:24.691Z,100111.03
2023-11-24T11:27:56.183Z,100101.16
2023-11-24T11:30:27.944Z,100100.53
2023-11-24T11:33:16.560Z,100084.41
2023-11-24T11:35:48.106Z,100076.72
2023-11-24T11:38:34.965Z,100054.13
2023-11-24T11:41:05.620Z,100061.91
2023-11-24T11:43:52.630Z,100063.19
2023-11-24T11:49:10.929Z,100054.91
2023-11-24T11:51:39.477Z,100051.06
2023-11-24T11:54:08.344Z,100046.59
2023-11-24T11:56:36.404Z,100049.53
2023-11-24T11:59:07.046Z,100036.09
2023-11-24T12:01:37.181Z,100038.50
2023-11-24T12:04:05.605Z,100038.72
2023-11-24T12:06:34.044Z,100016.41
2023-11-24T12:09:02.049Z,100017.41
2023-11-24T12:11:30.500Z,100015.97
2023-11-24T12:13:58.733Z,100010.72
2023-11-24T12:16:29.765Z,100001.09
2023-11-24T12:18:58.328Z,99999.69
2023-11-24T12:21:26.305Z,99994.25
2023-11-24T12:24:05.045Z,99972.59
2023-11-24T12:26:40.923Z,99968.28
2023-11-24T12:29:14.961Z,99969.41
2023-11-24T12:31:43.826Z,99965.88
2023-11-24T12:34:25.891Z,99961.03
2023-11-24T12:36:57.254Z,99964.25
2023-11-24T12:39:35.677Z,99957.19
2023-11-24T12:42:06.015Z,99938.38
2023-11-24T12:44:35.688Z,99958.81
2023-11-24T12:47:10.308Z,99949.19
2023-11-24T12:50:01.610Z,99935.25
2023-11-24T12:52:32.762Z,99949.88
2023-11-24T12:55:03.180Z,99925.84
2023-11-24T12:57:32.316Z,99950.56
2023-11-24T13:00:11.165Z,99942.91
2023-11-24T13:02:40.878Z,99940.69
2023-11-24T13:05:11.148Z,99922.41
2023-11-24T13:07:44.189Z,99940.06
2023-11-24T13:10:13.004Z,99930.28
2023-11-24T13:12:43.197Z,99926.63
2023-11-24T13:15:11.846Z,99905.66
2023-11-24T13:17:40.328Z,99935.31
2023-11-24T13:20:15.042Z,99926.00
2023-11-24T13:22:44.984Z,99927.28
2023-11-24T13:25:13.430Z,99919.09
2023-11-24T13:27:43.028Z,99911.72
2023-11-24T13:30:13.322Z,99920.22
2023-11-24T13:32:42.735Z,99913.38
2023-11-24T13:35:17.133Z,99914.97
2023-11-24T13:37:48.517Z,99920.25
2023-11-24T13:40:21.499Z,99893.59
2023-11-24T13:42:50.648Z,99908.53
2023-11-24T13:45:18.766Z,99905.69
2023-11-24T13:47:46.768Z,99911.28
2023-11-24T13:50:16.008Z,99911.81
2023-11-24T13:52:45.260Z,99895.91
2023-11-24T13:55:13.616Z,99904.56
2023-11-24T13:57:41.793Z,99898.63
2023-11-24T14:00:12.802Z,99913.56
2023-11-24T14:02:42.182Z,99889.97
2023-11-24T14:05:10.837Z,99902.84
2023-11-24T14:07:39.350Z,99897.38
2023-11-24T14:10:07.858Z,99895.78
2023-11-24T14:12:36.566Z,99895.13
2023-11-24T14:15:05.884Z,99899.13
2023-11-24T14:17:37.061Z,99903.78
2023-11-24T14:20:08.249Z,99892.88
2023-11-24T14:22:37.610Z,99894.00
2023-11-24T14:25:07.963Z,99899.47
2023-11-24T14:27:36.897Z,99925.63
2023-11-24T14:30:06.895Z,99921.94
2023-11-24T14:32:35.693Z,99934.13
2023-11-24T14:35:07.049Z,99936.38
2023-11-24T14:37:35.377Z,99927.41
2023-11-24T14:42:36.728Z,99932.19
2023-11-24T14:45:06.034Z,99926.09
2023-11-24T14:47:33.982Z,99943.25
2023-11-24T14:50:06.713Z,99929.13
2023-11-24T14:52:35.015Z,99930.25
2023-11-24T14:55:06.173Z,99926.25
2023-11-24T14:57:34.698Z,99942.63
2023-11-24T15:00:03.634Z,99932.81
2023-11-24T15:02:32.117Z,99933.94
2023-11-24T15:05:00.250Z,99936.66
2023-11-24T15:07:31.057Z,99934.25
2023-11-24T15:10:00.523Z,99922.97
2023-11-24T15:12:28.717Z,99927.03
2023-11-24T15:15:00.345Z,99917.25
2023-11-24T15:17:28.756Z,99929.44
2023-11-24T15:19:57.038Z,99930.56
2023-11-24T15:22:28.551Z,99931.16
2023-11-24T15:24:59.708Z,99931.16
2023-11-24T15:27:28.538Z,99913.53
2023-11-24T15:29:56.757Z,99926.34
2023-11-24T15:32:25.311Z,99918.81
2023-11-24T15:34:54.709Z,99921.03
2023-11-24T15:37:24.228Z,99905.00
2023-11-24T15:39:58.395Z,99914.63
2023-11-24T15:42:30.437Z,99911.56
2023-11-24T15:45:00.406Z,99893.72
2023-11-24T15:47:29.726Z,99898.06
2023-11-24T15:49:59.678Z,99887.00
2023-11-24T15:52:28.673Z,99875.09
2023-11-24T15:54:58.908Z,99899.81
2023-11-24T15:57:27.866Z,99888.44
2023-11-24T16:00:00.792Z,99894.19
2023-11-24T16:02:33.194Z,99887.63
2023-11-24T16:05:05.833Z,99896.44
2023-11-24T16:07:35.951Z,99896.91
2023-11-24T16:10:16.931Z,99889.84
2023-11-24T16:12:46.021Z,99883.09
2023-11-24T16:15:20.259Z,99891.78
2023-11-24T16:17:51.535Z,99889.84
2023-11-24T16:20:19.718Z,99885.19
2023-11-24T16:22:47.648Z,99889.72
2023-11-24T16:25:15.794Z,99890.84
2023-11-24T16:27:44.022Z,99897.09
2023-11-24T16:30:12.201Z,99889.25
2023-11-24T16:32:40.743Z,99898.22
2023-11-24T16:35:13.422Z,99906.09
2023-11-24T16:37:42.033Z,99891.66
2023-11-24T16:40:10.318Z,99904.47
2023-11-24T16:42:38.589Z,99895.50
2023-11-24T16:45:10.151Z,99888.44
2023-11-24T16:47:38.695Z,99895.81
2023-11-24T16:50:09.269Z,99895.00
2023-11-24T16:52:46.543Z,99908.81
2023-11-24T16:55:16.014Z,99904.97
2023-11-24T16:57:43.932Z,99902.56
2023-11-24T17:00:14.934Z,99903.03
2023-11-24T17:02:43.160Z,99912.50
2023-11-24T17:05:12.055Z,99902.91
2023-11-24T17:07:42.813Z,99909.16
2023-11-24T17:10:11.421Z,99907.72
2023-11-24T17:12:40.749Z,99898.72
2023-11-24T17:15:12.663Z,99914.16
2023-11-24T17:17:41.308Z,99907.59
2023-11-24T17:20:09.929Z,99909.53
2023-11-24T17:22:40.910Z,99910.81
2023-11-24T17:25:09.091Z,99912.41
2023-11-24T17:27:37.768Z,99898.28
2023-11-24T17:30:08.198Z,99908.41
2023-11-24T17:32:37.190Z,99899.09
2023-11-24T17:35:07.945Z,99893.16
2023-11-24T17:37:36.661Z,99885.13
2023-11-24T17:40:09.614Z,99904.88
2023-11-24T17:42:37.890Z,99905.69
2023-11-24T17:45:16.355Z,99901.81
2023-11-24T17:47:46.885Z,99895.91
2023-11-24T17:50:15.307Z,99885.78
2023-11-24T17:52:44.102Z,99890.44
2023-11-24T17:55:12.313Z,99886.72
2023-11-24T17:57:40.463Z,99894.09
2023-11-24T18:00:14.427Z,99882.22
2023-11-24T18:02:42.510Z,99892.50
2023-11-24T18:05:11.637Z,99898.28
2023-11-24T18:07:40.403Z,99894.09
2023-11-24T18:10:08.906Z,99890.91
2023-11-24T18:12:37.150Z,99896.81
2023-11-24T18:15:08.209Z,99893.78
2023-11-24T18:17:36.535Z,99892.69
2023-11-24T18:20:06.563Z,99880.44
2023-11-24T18:22:34.694Z,99918.53
2023-11-24T18:25:10.397Z,99896.50
2023-11-24T18:27:39.322Z,99901.97
2023-11-24T18:30:08.295Z,99915.59
2023-11-24T18:32:36.292Z,99902.78
2023-11-24T18:35:04.653Z,99908.72
2023-11-24T18:37:32.938Z,99900.69
2023-11-24T18:40:03.839Z,99897.66
2023-11-24T18:42:34.040Z,99891.09
2023-11-24T18:45:02.763Z,99903.09
2023-11-24T18:47:31.929Z,99901.38
2023-11-24T18:50:00.041Z,99898.63
2023-11-24T18:52:28.148Z,99907.63
2023-11-24T18:54:56.469Z,99900.88
2023-11-24T18:57:25.704Z,99903.91
2023-11-24T18:59:54.936Z,99901.50
2023-11-24T19:02:27.931Z,99911.28
2023-11-24T19:04:56.544Z,99906.00
2023-11-24T19:07:24.779Z,99908.41
2023-11-24T19:09:54.398Z,99916.91
2023-11-24T19:12:22.399Z,99912.88
2023-11-24T19:14:50.598Z,99910.47
2023-11-24T19:17:19.612Z,99910.78
2023-11-24T19:19:50.507Z,99902.44
2023-11-24T19:22:19.461Z,99901.13
2023-11-24T19:24:48.183Z,99898.25
2023-11-24T19:27:16.813Z,99899.84
2023-11-24T19:29:45.196Z,99898.25
2023-11-24T19:32:13.238Z,99905.94
2023-11-24T19:34:43.827Z,99903.50
2023-11-24T19:37:14.439Z,99907.03
2023-11-24T19:39:43.908Z,99899.69
2023-11-24T19:42:12.447Z,99907.41
2023-11-24T19:44:41.136Z,99909.31
2023-11-24T19:47:13.037Z,99916.56
2023-11-24T19:49:40.885Z,99911.91
2023-11-24T19:52:10.937Z,99903.41
2023-11-24T19:54:39.418Z,99901.81
2023-11-24T19:57:07.596Z,99901.66
2023-11-24T19:59:35.683Z,99904.06
2023-11-24T20:02:06.071Z,99891.53
2023-11-24T20:04:35.284Z,99891.22
2023-11-24T20:07:03.812Z,99905.19
2023-11-24T20:09:34.341Z,99907.25
2023-11-24T20:12:02.538Z,99899.22
2023-11-24T20:14:32.753Z,99899.06
2023-11-24T20:17:01.049Z,99891.00
2023-11-24T20:19:30.064Z,99886.50
2023-11-24T20:21:58.398Z,99910.91
2023-11-24T20:24:27.517Z,99906.28
2023-11-24T20:26:56.207Z,99908.88
2023-11-24T20:29:24.142Z,99903.41
2023-11-24T20:31:52.042Z,99889.63
2023-11-24T20:34:20.125Z,99883.50
2023-11-24T20:36:48.785Z,99897.16
2023-11-24T20:39:22.640Z,99896.47
2023-11-24T20:41:51.915Z,99902.44
2023-11-24T20:44:20.292Z,99898.59
2023-11-24T20:46:52.004Z,99890.91
2023-11-24T20:49:20.171Z,99893.13
2023-11-24T20:51:48.369Z,99898.91
2023-11-24T20:54:16.958Z,99888.94
2023-11-24T20:56:45.724Z,99888.13
2023-11-24T20:59:14.907Z,99892.16
2023-11-24T21:01:43.245Z,99894.06
2023-11-24T21:04:13.645Z,99893.94
2023-11-24T21:06:41.958Z,99901.81
2023-11-24T21:09:11.820Z,99904.06
2023-11-24T21:11:40.395Z,99908.88
2023-11-24T21:14:09.126Z,99916.91
2023-11-24T21:16:37.390Z,99924.31
2023-11-24T21:19:05.723Z,99916.59
2023-11-24T21:21:34.051Z,99933.28
2023-11-24T21:24:02.752Z,99918.84
2023-11-24T21:26:30.636Z,99926.38
2023-11-24T21:28:58.677Z,99926.72
2023-11-24T21:31:27.058Z,99937.28
2023-11-24T21:33:55.875Z,99935.22
2023-11-24T21:36:24.311Z,99930.56
2023-11-24T21:38:52.608Z,99938.75
2023-11-24T21:41:23.654Z,99934.88
2023-11-24T21:43:52.133Z,99925.22
2023-11-24T21:46:21.392Z,99938.75
2023-11-24T21:48:50.970Z,99939.34
2023-11-24T21:51:19.377Z,99940.00
2023-11-24T21:53:47.631Z,99938.19
2023-11-24T21:56:24.967Z,99923.41
2023-11-24T21:58:53.961Z,99944.63
2023-11-24T22:01:22.601Z,99942.50
2023-11-24T22:03:53.589Z,99936.56
2023-11-24T22:06:26.051Z,99928.88
2023-11-24T22:08:54.327Z,99945.09
2023-11-24T22:11:22.318Z,99936.44
2023-11-24T22:13:50.417Z,99930.00
2023-11-24T22:16:19.588Z,99928.38
2023-11-24T22:18:51.109Z,99940.09
2023-11-24T22:21:20.210Z,99939.28
2023-11-24T22:23:48.644Z,99949.41
2023-11-24T22:26:23.222Z,99949.72
2023-11-24T22:28:53.677Z,99938.66
2023-11-24T22:31:21.829Z,99946.50
2023-11-24T22:33:50.814Z,99957.75
2023-11-24T22:36:22.988Z,99961.56
2023-11-24T22:38:51.414Z,99943.50
2023-11-24T22:41:21.121Z,99903.94
2023-11-24T22:43:56.920Z,99948.88
2023-11-24T22:46:26.322Z,99948.88
2023-11-24T22:48:55.245Z,99951.38
2023-11-24T22:51:27.863Z,99956.81
2023-11-24T22:53:56.182Z,99952.50
2023-11-24T22:56:26.953Z,99944.91
2023-11-24T22:58:56.938Z,99973.50
2023-11-24T23:01:26.794Z,99969.66
2023-11-24T23:04:01.113Z,99950.38
2023-11-24T23:06:29.812Z,99959.41
2023-11-24T23:08:58.204Z,99964.34
2023-11-24T23:11:27.357Z,99965.47
2023-11-24T23:13:55.811Z,99968.81
2023-11-24T23:16:26.999Z,99972.66
2023-11-24T23:18:55.298Z,99970.75
2023-11-24T23:21:24.248Z,99976.50
2023-11-24T23:23:52.663Z,99972.16
2023-11-24T23:26:20.898Z,99972.16
2023-11-24T23:28:49.615Z,99970.38
2023-11-24T23:31:18.563Z,99979.03
2023-11-24T23:33:47.716Z,99978.88
2023-11-24T23:36:16.858Z,99989.44
2023-11-24T23:38:47.094Z,99993.63
2023-11-24T23:41:15.398Z,99988.66
2023-11-24T23:43:44.346Z,99986.25
2023-11-24T23:46:12.669Z,99981.91
2023-11-24T23:48:40.797Z,99980.31
2023-11-24T23:51:08.929Z,99973.53
2023-11-24T23:53:37.014Z,99967.91
2023-11-24T23:56:07.086Z,99965.50
2023-11-24T23:58:38.479Z,99969.84
